Decoded Metar for CYSF (STONY RAPIDS in SK, CANADA) (IATA:YSF) | Meteo·Mobile Aviation Weather
aviador You're here:

CYSF Decoded Metar

STONY RAPIDS in SK, CANADA
Report Time2019-02-17 16:00:00
UTC Time2019-02-17 16:23:07
Flight Rules vfr VFR
WindCalm
Visibility9999 m
Phenomena:N/A
Clouds:Few 110 Hf
Expected CloudBase > 1,200 ft AGL from Temp-Dew spread
CeilingNone
Temp-31°C (ISA -44)
Dew Point-34°C (75% RH)
AAT-34.9°C
QNH1040 hPa
Density Alt-5,935 ft
Elevation820 ft
Report Wrong Elevation
Raw Report
CYSF 171600Z AUTO 00000KT 9SM FEW110 M31/M34 A3070 RMK SLP438=

Extra information for CYSF:More info

Metar Taf Metar & Taf Last 4 Metars F.Rules Stats Wind Profile Meteogram Temp Stats Airport Information Weather charts Add Link Nearby VenuesMetar ALERT Operation Metar Decoded Social comments